Time;durP1;ratioP1;P1;durP2;ratioP2;P2;SDS_P1;SDS_P2;PMS_P1;PMS_P2;Temp;Humidity;BMP_temperature;BMP_pressure;BME280_temperature;BME280_humidity;BME280_pressure;Samples;Min_cycle;Max_cycle;Signal;HPM_P1;HPM_P2
2021/12/10 00:06:07;;;;;;;5.32;3.72;;;;;;;20.67;51.66;99210.47;20567300;28;101172;-82
2021/12/10 00:16:08;;;;;;;4.47;3.45;;;;;;;20.60;51.04;99207.59;20572002;28;101292;-82
2021/12/10 00:26:08;;;;;;;3.80;3.40;;;;;;;20.56;50.67;99195.69;20566201;28;98289;-83
2021/12/10 00:36:09;;;;;;;7.13;3.70;;;;;;;20.52;51.18;99196.13;20552252;28;100100;-80
2021/12/10 00:46:09;;;;;;;4.78;3.67;;;;;;;20.50;50.24;99219.13;20573070;28;97002;-81
2021/12/10 00:56:11;;;;;;;5.07;3.75;;;;;;;20.47;50.60;99212.34;20546049;28;97573;-80
2021/12/10 01:06:14;;;;;;;4.30;3.55;;;;;;;20.43;50.56;99196.03;20467884;28;99588;-81
2021/12/10 01:36:46;;;;;;;3.85;3.13;;;;;;;20.55;49.95;99211.63;20560965;28;97609;-80
2021/12/10 01:46:48;;;;;;;4.45;2.90;;;;;;;20.59;49.98;99224.34;20557436;28;97412;-82
2021/12/10 01:56:50;;;;;;;2.72;2.50;;;;;;;20.62;49.85;99215.34;20567335;28;98258;-81
2021/12/10 02:06:54;;;;;;;3.40;2.67;;;;;;;20.59;49.56;99208.56;20564841;28;98099;-82
2021/12/10 02:16:59;;;;;;;2.95;2.65;;;;;;;20.58;49.64;99213.94;20541177;28;101772;-81
2021/12/10 02:27:05;;;;;;;3.33;2.90;;;;;;;20.52;49.73;99217.16;20566295;28;97445;-82
2021/12/10 02:37:07;;;;;;;2.78;2.58;;;;;;;20.50;49.97;99212.03;20546294;28;97340;-82
2021/12/10 02:47:08;;;;;;;3.28;2.90;;;;;;;20.46;49.76;99236.97;20557344;28;97132;-80
2021/12/10 02:57:15;;;;;;;3.55;2.80;;;;;;;20.43;49.92;99224.94;20561184;28;97875;-81
2021/12/10 03:07:19;;;;;;;3.15;2.60;;;;;;;20.43;49.95;99208.31;20558067;28;96938;-82
2021/12/10 03:17:26;;;;;;;2.95;2.53;;;;;;;20.37;50.42;99220.22;20562942;28;97010;-82
2021/12/10 03:27:27;;;;;;;4.18;2.47;;;;;;;20.36;50.41;99233.53;20550834;28;97093;-81
2021/12/10 03:37:28;;;;;;;2.75;2.47;;;;;;;20.37;50.39;99253.59;20560565;28;98460;-80
2021/12/10 03:47:29;;;;;;;2.47;2.20;;;;;;;20.31;49.97;99247.09;20579872;28;100743;-81
2021/12/10 03:57:30;;;;;;;2.97;2.33;;;;;;;20.32;49.94;99240.88;20555075;28;96932;-81
2021/12/10 04:07:30;;;;;;;3.03;2.42;;;;;;;20.30;50.16;99243.66;20556480;28;97373;-80
2021/12/10 04:17:31;;;;;;;2.50;2.25;;;;;;;20.27;50.11;99256.25;20555006;28;97031;-80
2021/12/10 04:27:35;;;;;;;3.10;2.30;;;;;;;20.26;50.12;99265.09;20556671;28;97591;-81
2021/12/10 04:37:38;;;;;;;;;;;;;;;20.26;50.13;99279.06;20567229;28;96996;-81
2021/12/10 04:47:40;;;;;;;2.63;2.10;;;;;;;20.18;50.08;99296.50;20568123;28;100294;-82
2021/12/10 04:57:43;;;;;;;2.92;2.30;;;;;;;20.15;50.16;99303.72;20563226;28;96962;-81
2021/12/10 05:07:44;;;;;;;2.63;2.43;;;;;;;20.15;50.47;99316.84;20557792;28;97160;-80
2021/12/10 05:17:48;;;;;;;4.43;2.22;;;;;;;20.39;50.12;99312.13;20569680;28;97137;-81
2021/12/10 05:27:49;;;;;;;3.45;2.05;;;;;;;20.67;50.39;99320.13;20562899;28;100520;-79
2021/12/10 05:37:49;;;;;;;5.00;2.17;;;;;;;20.86;50.73;99303.47;20537002;28;96998;-76
2021/12/10 05:47:51;;;;;;;4.10;1.98;;;;;;;21.00;50.65;99294.31;20527306;28;97595;-77
2021/12/10 05:57:52;;;;;;;3.38;2.03;;;;;;;21.09;50.77;99286.38;20537080;28;98432;-79
2021/12/10 06:07:53;;;;;;;3.75;2.67;;;;;;;21.05;49.62;99269.19;20537977;28;97526;-77
2021/12/10 06:17:54;;;;;;;8.43;3.78;;;;;;;21.01;49.99;99282.81;20521736;28;103017;-79
2021/12/10 06:27:55;;;;;;;7.45;4.50;;;;;;;20.87;47.73;99270.94;20522583;28;97206;-78
2021/12/10 06:37:56;;;;;;;9.52;4.40;;;;;;;20.89;46.97;99275.06;20541796;28;97586;-79
2021/12/10 06:48:00;;;;;;;9.68;3.70;;;;;;;21.06;48.10;99272.69;20518762;28;97627;-76
2021/12/10 06:58:01;;;;;;;9.43;3.70;;;;;;;21.11;47.95;99280.97;20526811;28;100086;-75
2021/12/10 07:08:03;;;;;;;7.25;3.20;;;;;;;21.21;48.72;99271.19;20535965;28;97141;-78
2021/12/10 07:18:04;;;;;;;11.00;5.28;;;;;;;21.10;46.44;99274.03;20544819;28;99349;-78
2021/12/10 07:28:05;;;;;;;5.30;3.95;;;;;;;21.19;47.30;99269.69;20556145;28;96944;-77
2021/12/10 07:38:06;;;;;;;5.80;3.50;;;;;;;21.22;47.60;99264.97;20554318;28;97400;-77
2021/12/10 07:48:09;;;;;;;5.80;3.67;;;;;;;21.24;47.76;99252.50;20559978;28;98596;-77
2021/12/10 07:58:10;;;;;;;6.22;4.50;;;;;;;21.31;42.75;99251.91;20534026;28;98189;-77
2021/12/10 08:08:10;;;;;;;25.63;15.65;;;;;;;21.10;43.38;99252.97;20549792;28;97308;-78
2021/12/10 08:18:11;;;;;;;15.43;10.77;;;;;;;21.19;43.78;99246.00;20556302;28;98186;-78
2021/12/10 08:28:12;;;;;;;18.08;11.75;;;;;;;21.22;44.69;99264.16;20513491;28;97058;-78
2021/12/10 08:38:13;;;;;;;15.60;9.27;;;;;;;21.25;45.23;99242.78;20541106;28;101640;-78
2021/12/10 08:48:14;;;;;;;15.23;10.27;;;;;;;21.31;45.45;99241.38;20539151;28;101492;-79
2021/12/10 08:58:15;;;;;;;17.67;12.50;;;;;;;21.28;45.87;99239.88;20534949;28;97161;-78
2021/12/10 09:08:16;;;;;;;15.07;9.30;;;;;;;21.30;45.61;99237.06;20545370;28;100517;-80
2021/12/10 09:18:17;;;;;;;15.80;10.30;;;;;;;21.28;46.11;99243.31;20562415;28;96980;-80
2021/12/10 09:28:17;;;;;;;13.47;9.73;;;;;;;21.26;46.10;99249.72;20561670;28;97368;-78
2021/12/10 09:38:20;;;;;;;11.52;8.30;;;;;;;21.29;46.77;99244.16;20565491;28;97788;-79
2021/12/10 09:48:23;;;;;;;15.38;7.72;;;;;;;21.26;46.82;99252.34;20553806;28;97277;-79
2021/12/10 09:58:25;;;;;;;12.23;7.57;;;;;;;21.18;46.78;99258.34;20566046;28;99194;-78
2021/12/10 10:08:27;;;;;;;9.23;6.63;;;;;;;21.13;46.92;99267.66;20561768;28;96991;-79
2021/12/10 10:18:31;;;;;;;10.18;6.93;;;;;;;21.10;46.67;99253.81;20571632;28;99930;-79
2021/12/10 10:28:32;;;;;;;9.10;6.55;;;;;;;21.10;46.73;99252.97;20553708;28;96756;-78
2021/12/10 10:38:32;;;;;;;12.82;6.45;;;;;;;21.05;46.57;99234.97;20555315;28;97615;-77
2021/12/10 10:48:34;;;;;;;8.82;6.55;;;;;;;21.02;46.24;99210.75;20566539;28;97465;-79
2021/12/10 10:59:00;;;;;;;10.73;7.40;;;;;;;21.00;46.46;99191.69;20571117;28;96853;-78
2021/12/10 11:09:23;;;;;;;9.30;6.72;;;;;;;20.99;46.52;99174.22;20552090;28;97524;-77
2021/12/10 11:19:27;;;;;;;11.10;7.00;;;;;;;20.97;46.42;99186.69;20532931;28;100087;-78
2021/12/10 11:29:53;;;;;;;10.55;6.78;;;;;;;21.03;46.31;99167.69;20550504;28;97198;-79
2021/12/10 11:39:53;;;;;;;12.25;6.72;;;;;;;21.14;46.76;99172.75;20535279;28;101674;-77
2021/12/10 11:49:54;;;;;;;21.65;14.02;;;;;;;21.25;46.48;99167.28;20542937;28;100015;-76
2021/12/10 11:59:59;;;;;;;22.55;13.13;;;;;;;21.32;47.14;99162.22;20538293;28;97001;-77
2021/12/10 12:10:07;;;;;;;19.98;13.18;;;;;;;21.47;47.50;99162.56;20540914;28;98106;-74
2021/12/10 12:20:32;;;;;;;23.73;12.75;;;;;;;21.54;48.08;99141.69;20525578;28;97340;-76
2021/12/10 12:30:33;;;;;;;21.98;11.80;;;;;;;21.61;47.91;99152.50;20499214;28;98055;-73
2021/12/10 12:40:35;;;;;;;18.05;10.50;;;;;;;21.61;47.51;99134.06;20539847;28;98437;-75
2021/12/10 12:50:36;;;;;;;21.42;9.63;;;;;;;21.60;47.15;99133.22;20532079;28;97668;-75
2021/12/10 13:00:44;;;;;;;17.08;9.20;;;;;;;21.59;47.66;99131.56;20532888;28;97474;-77
2021/12/10 13:11:00;;;;;;;17.52;9.48;;;;;;;21.35;45.91;99116.34;20487722;28;97458;-76
2021/12/10 13:21:01;;;;;;;12.98;8.40;;;;;;;21.46;45.96;99116.13;20541708;28;96992;-76
2021/12/10 13:31:08;;;;;;;12.32;7.57;;;;;;;21.48;45.88;99106.25;20544716;28;98119;-76
2021/12/10 13:51:17;;;;;;;11.13;6.70;;;;;;;21.45;46.49;99122.38;20818349;22;109871;-76
2021/12/10 14:01:25;;;;;;;10.95;6.60;;;;;;;21.41;46.21;99116.56;20776759;22;98429;-76
2021/12/10 14:11:40;;;;;;;13.77;7.80;;;;;;;21.21;44.99;99123.78;20535662;28;97074;-78
2021/12/10 14:21:44;;;;;;;10.70;7.10;;;;;;;21.25;45.75;99121.69;20531913;28;97336;-78
2021/12/10 14:31:47;;;;;;;10.70;6.55;;;;;;;21.27;45.95;99120.53;20541851;28;97517;-78
2021/12/10 14:41:51;;;;;;;8.23;5.80;;;;;;;21.29;45.89;99125.69;20546529;28;98216;-79
2021/12/10 14:52:18;;;;;;;9.68;6.25;;;;;;;21.27;46.16;99127.63;20555693;28;97171;-79
2021/12/10 15:02:29;;;;;;;9.77;5.63;;;;;;;21.21;46.13;99133.50;20542269;28;99953;-79
2021/12/10 15:12:51;;;;;;;12.90;6.18;;;;;;;21.19;46.17;99133.66;20547578;28;98028;-76
2021/12/10 15:22:52;;;;;;;10.07;5.63;;;;;;;21.26;46.52;99134.72;20505631;28;101199;-75
2021/12/10 15:32:58;;;;;;;10.38;5.88;;;;;;;21.35;46.20;99132.97;20517095;22;98688;-72
2021/12/10 15:43:04;;;;;;;10.93;5.55;;;;;;;21.46;46.10;99139.81;20503146;28;98509;-71
2021/12/10 15:53:25;;;;;;;9.27;5.57;;;;;;;21.47;45.72;99122.19;20499308;28;101195;-69
2021/12/10 16:03:27;;;;;;;8.45;5.05;;;;;;;21.53;46.49;99122.44;20472986;28;101000;-70
2021/12/10 16:13:29;;;;;;;8.73;5.28;;;;;;;21.58;46.48;99130.75;20489745;28;100808;-70
2021/12/10 16:23:40;;;;;;;7.00;4.77;;;;;;;21.58;46.27;99136.00;20491574;28;101890;-70
2021/12/10 16:33:43;;;;;;;6.97;4.68;;;;;;;21.60;46.95;99143.75;20491326;28;100622;-70
2021/12/10 16:43:49;;;;;;;9.07;5.07;;;;;;;21.62;46.77;99146.22;20494150;28;99971;-69
2021/12/10 16:53:55;;;;;;;8.38;4.85;;;;;;;21.72;47.32;99131.16;20480176;28;100883;-69
2021/12/10 17:03:58;;;;;;;10.85;5.03;;;;;;;21.64;46.52;99133.75;20488703;28;97989;-67
2021/12/10 17:14:08;;;;;;;8.82;4.47;;;;;;;21.75;46.93;99142.22;20498706;28;100110;-68
2021/12/10 17:24:11;;;;;;;8.18;4.20;;;;;;;21.72;46.97;99144.34;20500643;28;97261;-70
2021/12/10 17:34:18;;;;;;;7.10;4.35;;;;;;;21.75;46.84;99152.78;20483003;28;99170;-68
2021/12/10 17:44:21;;;;;;;9.85;4.40;;;;;;;21.89;46.67;99140.84;20468507;28;101454;-70
2021/12/10 17:54:26;;;;;;;;;;;;;;;21.93;46.63;99133.47;20463052;28;101295;-71
2021/12/10 18:04:27;;;;;;;12.77;4.80;;;;;;;21.93;46.75;99141.38;20458426;28;101282;-70
2021/12/10 18:14:40;;;;;;;8.80;4.22;;;;;;;21.96;47.65;99150.75;20470553;28;101150;-70
2021/12/10 18:24:48;;;;;;;6.15;4.15;;;;;;;21.95;47.69;99142.03;20474550;28;99821;-73
2021/12/10 18:34:52;;;;;;;9.13;4.45;;;;;;;21.91;47.39;99156.53;20466437;28;97808;-69
2021/12/10 18:45:17;;;;;;;9.30;4.03;;;;;;;21.87;46.86;99168.34;20455321;28;101048;-68
2021/12/10 18:55:27;;;;;;;10.60;4.60;;;;;;;21.91;46.90;99174.97;20461970;28;97572;-70
2021/12/10 19:05:35;;;;;;;13.98;5.07;;;;;;;21.93;47.08;99188.81;20462995;28;98610;-68
2021/12/10 19:15:58;;;;;;;11.23;5.32;;;;;;;22.02;47.93;99184.41;20477624;28;101024;-68
2021/12/10 19:26:04;;;;;;;19.10;6.57;;;;;;;22.09;49.20;99192.56;20485608;28;100608;-68
2021/12/10 19:36:11;;;;;;;11.55;6.38;;;;;;;22.18;50.61;99218.81;20476320;28;101627;-68
2021/12/10 19:46:21;;;;;;;11.90;6.90;;;;;;;22.22;50.55;99224.63;20475136;28;99781;-68
2021/12/10 19:56:46;;;;;;;13.80;6.40;;;;;;;22.24;50.40;99217.38;20478592;28;97558;-70
2021/12/10 20:06:57;;;;;;;12.63;6.00;;;;;;;22.27;50.38;99222.34;20469890;28;99237;-68
2021/12/10 20:17:05;;;;;;;11.30;5.97;;;;;;;22.26;49.82;99231.22;20477163;28;100118;-66
2021/12/10 20:27:26;;;;;;;7.32;5.18;;;;;;;22.26;48.73;99227.78;20473158;28;98257;-68
2021/12/10 20:37:32;;;;;;;10.48;5.55;;;;;;;22.26;49.37;99228.59;20468031;28;100881;-68
2021/12/10 20:47:38;;;;;;;13.15;5.20;;;;;;;22.25;49.56;99226.13;20465565;28;98156;-68
2021/12/10 20:57:43;;;;;;;9.32;5.13;;;;;;;22.23;49.21;99231.53;20466471;28;97680;-69
2021/12/10 21:07:47;;;;;;;7.82;5.20;;;;;;;22.21;49.51;99238.78;20435800;28;101916;-69
2021/12/10 21:17:53;;;;;;;10.90;5.20;;;;;;;22.14;49.88;99245.63;20474968;28;99017;-70
2021/12/10 21:28:01;;;;;;;10.85;5.43;;;;;;;22.10;49.47;99253.03;20463568;28;101498;-68
2021/12/10 21:38:11;;;;;;;6.38;5.00;;;;;;;21.99;49.46;99266.44;20456652;28;102652;-69
2021/12/10 21:48:14;;;;;;;11.85;4.85;;;;;;;21.90;49.65;99281.38;20456129;28;101352;-69
2021/12/10 21:58:19;;;;;;;6.72;4.20;;;;;;;21.80;49.42;99278.81;20457114;28;98360;-69
2021/12/10 22:08:49;;;;;;;7.75;4.53;;;;;;;21.74;49.60;99292.56;20460754;28;100108;-68
2021/12/10 22:18:55;;;;;;;6.25;4.45;;;;;;;21.66;49.53;99316.19;20458311;28;103421;-69
2021/12/10 22:29:04;;;;;;;5.40;4.43;;;;;;;21.58;49.87;99306.38;20464647;28;100640;-68
2021/12/10 22:39:15;;;;;;;6.57;4.63;;;;;;;21.53;49.34;99319.97;20440894;28;97860;-69
2021/12/10 22:49:21;;;;;;;5.85;4.57;;;;;;;21.46;49.98;99303.09;20453591;28;98611;-69
2021/12/10 22:59:27;;;;;;;4.97;4.10;;;;;;;21.41;49.71;99286.91;20450959;28;98339;-68
2021/12/10 23:10:03;;;;;;;5.57;4.40;;;;;;;21.36;49.76;99311.06;20459023;28;101927;-68
2021/12/10 23:20:03;;;;;;;5.70;4.13;;;;;;;21.28;49.64;99298.59;20457216;28;103611;-69
2021/12/10 23:30:29;;;;;;;5.07;4.25;;;;;;;21.24;49.92;99293.81;20453491;28;100250;-68
2021/12/10 23:40:32;;;;;;;5.18;4.20;;;;;;;21.19;49.76;99301.28;20462615;28;98855;-69
2021/12/10 23:50:36;;;;;;;5.97;4.55;;;;;;;21.15;49.68;99313.91;20452634;28;100018;-68
